createdAt,value
2022-08-01T00:00:11.862Z,27.87
2022-08-01T00:03:00.021Z,28.05
2022-08-01T00:05:28.618Z,28.10
2022-08-01T00:07:56.871Z,27.81
2022-08-01T00:10:25.357Z,27.86
2022-08-01T00:12:55.134Z,27.89
2022-08-01T00:15:23.233Z,28.39
2022-08-01T00:17:51.441Z,28.23
2022-08-01T00:20:19.900Z,28.35
2022-08-01T00:22:48.117Z,28.44
2022-08-01T00:25:16.243Z,28.45
2022-08-01T00:27:44.546Z,28.60
2022-08-01T00:30:15.058Z,28.47
2022-08-01T00:32:43.984Z,28.84
2022-08-01T00:35:12.459Z,28.94
2022-08-01T00:37:40.536Z,28.47
2022-08-01T00:40:09.767Z,28.52
2022-08-01T00:42:43.286Z,28.77
2022-08-01T00:45:12.610Z,28.32
2022-08-01T00:47:42.733Z,28.23
2022-08-01T00:50:11.933Z,28.19
2022-08-01T00:52:41.462Z,28.44
2022-08-01T00:55:14.924Z,28.11
2022-08-01T00:58:05.236Z,28.39
2022-08-01T01:00:34.817Z,28.51
2022-08-01T01:03:26.447Z,28.02
2022-08-01T01:06:14.359Z,27.60
2022-08-01T01:08:46.103Z,27.80
2022-08-01T01:11:18.015Z,28.14
2022-08-01T01:13:50.962Z,28.68
2022-08-01T01:16:20.943Z,28.85
2022-08-01T01:18:53.347Z,28.46
2022-08-01T01:21:48.320Z,27.67
2022-08-01T01:24:36.534Z,27.95
2022-08-01T01:27:11.006Z,28.03
2022-08-01T01:30:00.477Z,28.15
2022-08-01T01:32:35.061Z,28.34
2022-08-01T01:35:08.920Z,28.25
2022-08-01T01:37:37.831Z,28.49
2022-08-01T01:40:08.010Z,28.51
2022-08-01T01:42:36.822Z,28.72
2022-08-01T01:45:08.427Z,28.47
2022-08-01T01:47:36.338Z,27.02
2022-08-01T01:50:05.957Z,28.58
2022-08-01T01:52:34.304Z,28.76
2022-08-01T01:55:03.831Z,28.55
2022-08-01T01:57:32.495Z,28.64
2022-08-01T02:00:01.568Z,28.91
2022-08-01T02:02:31.476Z,28.39
2022-08-01T02:05:00.513Z,28.99
2022-08-01T02:07:29.897Z,28.67
2022-08-01T02:09:58.780Z,28.83
2022-08-01T02:12:27.049Z,29.12
2022-08-01T02:14:56.535Z,28.96
2022-08-01T02:17:26.077Z,28.78
2022-08-01T02:19:56.107Z,28.61
2022-08-01T02:22:28.559Z,28.67
2022-08-01T02:25:01.663Z,28.90
2022-08-01T02:27:35.082Z,28.37
2022-08-01T02:30:06.743Z,28.83
2022-08-01T02:32:39.621Z,28.44
2022-08-01T02:35:12.233Z,28.35
2022-08-01T02:37:44.480Z,28.80
2022-08-01T02:40:15.843Z,28.96
2022-08-01T02:42:46.309Z,28.42
2022-08-01T02:45:15.134Z,28.99
2022-08-01T02:47:45.365Z,28.77
2022-08-01T02:50:17.756Z,28.63
2022-08-01T02:52:47.412Z,29.30
2022-08-01T02:55:16.330Z,29.27
2022-08-01T02:57:52.555Z,28.96
2022-08-01T03:00:26.089Z,29.10
2022-08-01T03:02:56.109Z,29.04
2022-08-01T03:05:27.069Z,28.89
2022-08-01T03:08:01.413Z,28.85
2022-08-01T03:10:33.538Z,28.98
2022-08-01T03:13:02.705Z,29.14
2022-08-01T03:15:32.120Z,29.11
2022-08-01T03:18:02.002Z,29.44
2022-08-01T03:20:33.325Z,29.25
2022-08-01T03:23:02.466Z,28.94
2022-08-01T03:25:31.312Z,29.21
2022-08-01T03:28:02.049Z,29.05
2022-08-01T03:30:30.966Z,29.51
2022-08-01T03:32:59.525Z,29.09
2022-08-01T03:35:32.614Z,28.73
2022-08-01T03:38:17.723Z,29.23
2022-08-01T03:40:49.783Z,29.06
2022-08-01T03:43:21.613Z,28.79
2022-08-01T03:45:53.346Z,28.91
2022-08-01T03:48:21.660Z,27.46
2022-08-01T03:50:53.804Z,28.42
2022-08-01T03:53:25.405Z,28.65
2022-08-01T03:55:53.363Z,27.67
2022-08-01T03:58:21.959Z,29.08
2022-08-01T04:00:51.070Z,28.94
2022-08-01T04:03:19.311Z,28.62
2022-08-01T04:05:47.505Z,28.89
2022-08-01T04:08:17.116Z,28.38
2022-08-01T04:10:45.220Z,28.41
2022-08-01T04:13:13.883Z,28.00
2022-08-01T04:15:42.330Z,27.92
2022-08-01T04:18:11.080Z,27.63
2022-08-01T04:20:39.117Z,27.16
2022-08-01T04:23:08.135Z,26.84
2022-08-01T04:25:40.813Z,26.13
2022-08-01T04:28:12.172Z,25.98
2022-08-01T04:30:40.489Z,25.75
2022-08-01T04:33:10.689Z,25.26
2022-08-01T04:36:02.162Z,24.89
2022-08-01T04:38:31.679Z,24.96
2022-08-01T04:41:08.756Z,23.79
2022-08-01T04:43:38.352Z,23.54
2022-08-01T04:46:07.974Z,23.33
2022-08-01T04:48:39.751Z,22.84
2022-08-01T04:51:16.364Z,21.70
2022-08-01T04:53:45.062Z,22.33
2022-08-01T04:56:15.109Z,21.12
2022-08-01T04:58:43.705Z,21.02
2022-08-01T05:01:12.998Z,20.24
2022-08-01T05:03:41.672Z,20.24
2022-08-01T05:06:10.225Z,19.87
2022-08-01T05:08:38.318Z,19.47
2022-08-01T05:11:06.687Z,18.79
2022-08-01T05:13:36.921Z,17.76
2022-08-01T05:16:05.207Z,17.95
2022-08-01T05:18:33.948Z,17.64
2022-08-01T05:21:03.365Z,16.82
2022-08-01T05:23:42.436Z,16.34
2022-08-01T05:26:14.704Z,16.48
2022-08-01T05:28:44.703Z,15.80
2022-08-01T05:31:13.303Z,15.43
2022-08-01T05:33:41.513Z,15.00
2022-08-01T05:36:09.823Z,14.70
2022-08-01T05:38:38.310Z,14.06
2022-08-01T05:41:06.891Z,13.60
2022-08-01T05:43:35.026Z,13.57
2022-08-01T05:46:04.919Z,12.98
2022-08-01T05:48:33.044Z,12.97
2022-08-01T05:51:01.122Z,12.75
2022-08-01T05:53:29.651Z,11.80
2022-08-01T05:55:57.739Z,10.97
2022-08-01T05:58:25.853Z,11.08
2022-08-01T06:00:54.143Z,10.58
2022-08-01T06:03:23.727Z,10.05
2022-08-01T06:05:51.822Z,9.11
2022-08-01T06:08:20.124Z,9.09
2022-08-01T06:10:48.185Z,8.93
2022-08-01T06:13:16.550Z,9.10
2022-08-01T06:15:45.033Z,8.64
2022-08-01T06:18:13.375Z,8.29
2022-08-01T06:20:42.880Z,7.79
2022-08-01T06:23:24.436Z,7.67
2022-08-01T06:26:00.153Z,7.47
2022-08-01T06:28:28.784Z,7.14
2022-08-01T06:30:59.649Z,7.33
2022-08-01T06:33:28.385Z,6.87
2022-08-01T06:35:58.341Z,6.91
2022-08-01T06:38:27.157Z,6.80
2022-08-01T06:40:55.390Z,6.94
2022-08-01T06:43:24.891Z,6.61
2022-08-01T06:45:53.046Z,6.69
2022-08-01T06:48:21.173Z,6.44
2022-08-01T06:50:49.584Z,6.48
2022-08-01T06:53:19.053Z,6.31
2022-08-01T06:55:47.713Z,6.02
2022-08-01T06:58:16.194Z,5.97
2022-08-01T07:00:44.497Z,5.18
2022-08-01T07:03:12.693Z,5.42
2022-08-01T07:05:40.965Z,5.44
2022-08-01T07:08:09.074Z,5.17
2022-08-01T07:10:38.562Z,4.58
2022-08-01T07:13:06.966Z,3.97
2022-08-01T07:15:35.068Z,3.51
2022-08-01T07:18:04.955Z,3.25
2022-08-01T07:20:37.975Z,2.97
2022-08-01T07:23:18.726Z,2.60
2022-08-01T07:25:55.913Z,2.37
2022-08-01T07:28:26.404Z,2.33
2022-08-01T07:30:54.833Z,2.29
2022-08-01T07:33:23.389Z,2.42
2022-08-01T07:35:51.908Z,2.28
2022-08-01T07:38:20.313Z,2.91
2022-08-01T07:40:48.614Z,3.28
2022-08-01T07:43:18.111Z,4.10
2022-08-01T07:45:46.707Z,3.98
2022-08-01T07:48:17.025Z,3.29
2022-08-01T07:50:46.479Z,4.15
2022-08-01T07:53:15.456Z,3.93
2022-08-01T07:55:43.941Z,4.41
2022-08-01T07:58:14.462Z,4.47
2022-08-01T08:00:45.028Z,4.51
2022-08-01T08:03:13.231Z,5.56
2022-08-01T08:05:59.010Z,5.60
2022-08-01T08:08:29.849Z,5.16
2022-08-01T08:10:58.039Z,5.42
2022-08-01T08:13:26.285Z,5.39
2022-08-01T08:15:56.749Z,5.04
2022-08-01T08:18:26.990Z,5.94
2022-08-01T08:20:55.776Z,6.32
2022-08-01T08:23:43.029Z,6.99
2022-08-01T08:26:12.680Z,7.12
2022-08-01T08:28:41.033Z,7.37
2022-08-01T08:31:25.572Z,7.67
2022-08-01T08:33:59.317Z,8.11
2022-08-01T08:36:31.241Z,8.28
2022-08-01T08:39:01.673Z,7.80
2022-08-01T08:41:37.663Z,7.36
2022-08-01T08:44:10.198Z,7.54
2022-08-01T08:46:44.935Z,7.05
2022-08-01T08:49:15.185Z,7.49
2022-08-01T08:51:44.323Z,7.96
2022-08-01T08:54:14.267Z,8.39
2022-08-01T08:56:42.932Z,8.49
2022-08-01T08:59:11.074Z,8.18
2022-08-01T09:01:39.298Z,8.48
2022-08-01T09:04:09.119Z,8.40
2022-08-01T09:06:37.312Z,8.90
2022-08-01T09:09:05.955Z,9.31
2022-08-01T09:11:34.533Z,9.29
2022-08-01T09:14:11.715Z,9.14
2022-08-01T09:16:48.285Z,9.04
2022-08-01T09:19:39.151Z,9.94
2022-08-01T09:22:10.686Z,10.61
2022-08-01T09:24:40.219Z,10.38
2022-08-01T09:27:21.741Z,10.43
2022-08-01T09:30:00.791Z,10.22
2022-08-01T09:32:38.502Z,9.55
2022-08-01T09:35:31.012Z,8.78
2022-08-01T09:38:15.585Z,8.62
2022-08-01T09:40:52.068Z,8.90
2022-08-01T09:43:20.831Z,9.16
2022-08-01T09:45:50.850Z,9.16
2022-08-01T09:48:22.738Z,9.19
2022-08-01T09:51:04.060Z,8.93
2022-08-01T09:53:51.125Z,7.64
2022-08-01T09:56:22.137Z,8.08
2022-08-01T09:59:02.947Z,8.50
2022-08-01T10:01:44.616Z,8.92
2022-08-01T10:04:15.262Z,9.02
2022-08-01T10:06:46.629Z,9.21
2022-08-01T10:09:16.215Z,9.58
2022-08-01T10:11:45.487Z,9.77
2022-08-01T10:14:17.736Z,9.85
2022-08-01T10:17:04.934Z,9.84
2022-08-01T10:19:34.646Z,10.02
2022-08-01T10:22:07.575Z,9.37
2022-08-01T10:24:38.870Z,8.73
2022-08-01T10:27:09.443Z,9.07
2022-08-01T10:29:59.779Z,8.90
2022-08-01T10:32:32.743Z,9.38
2022-08-01T10:35:06.510Z,9.38
2022-08-01T10:37:51.502Z,9.02
2022-08-01T10:40:31.245Z,9.82
2022-08-01T10:43:00.459Z,9.96
2022-08-01T10:45:30.339Z,10.15
2022-08-01T10:48:02.418Z,9.68
2022-08-01T10:50:34.308Z,9.67
2022-08-01T10:53:16.044Z,9.88
2022-08-01T10:55:53.004Z,9.59
2022-08-01T10:58:30.113Z,9.79
2022-08-01T11:01:23.158Z,9.56
2022-08-01T11:04:15.504Z,9.01
2022-08-01T11:06:56.127Z,8.59
2022-08-01T11:09:36.809Z,8.62
2022-08-01T11:12:13.641Z,8.63
2022-08-01T11:15:29.162Z,7.98
2022-08-01T11:18:01.870Z,8.33
2022-08-01T11:20:32.668Z,8.76
2022-08-01T11:23:25.536Z,9.40
2022-08-01T11:26:28.922Z,9.32
2022-08-01T11:29:22.118Z,10.06
2022-08-01T11:31:53.058Z,10.70
2022-08-01T11:34:21.788Z,10.11
2022-08-01T11:36:59.435Z,11.46
2022-08-01T11:39:29.562Z,12.15
2022-08-01T11:42:20.814Z,11.64
2022-08-01T11:44:52.495Z,12.31
2022-08-01T11:47:21.552Z,13.09
2022-08-01T11:49:56.276Z,13.26
2022-08-01T11:52:29.499Z,12.88
2022-08-01T11:54:59.722Z,12.76
2022-08-01T11:57:34.852Z,12.38
2022-08-01T12:00:09.025Z,12.33
2022-08-01T12:02:37.661Z,12.22
2022-08-01T12:05:12.169Z,12.09
2022-08-01T12:07:42.284Z,12.09
2022-08-01T12:10:12.706Z,11.43
2022-08-01T12:12:46.803Z,10.77
2022-08-01T12:15:15.543Z,11.16
2022-08-01T12:17:58.668Z,11.21
2022-08-01T12:20:31.610Z,11.16
2022-08-01T12:23:01.529Z,11.56
2022-08-01T12:25:30.055Z,11.46
2022-08-01T12:28:02.392Z,11.15
2022-08-01T12:30:32.893Z,11.46
2022-08-01T12:33:00.991Z,11.33
2022-08-01T12:35:30.841Z,11.50
2022-08-01T12:38:01.473Z,11.42
2022-08-01T12:40:31.038Z,11.38
2022-08-01T12:43:03.305Z,10.97
2022-08-01T12:45:34.401Z,11.70
2022-08-01T12:48:03.600Z,11.97
2022-08-01T12:50:32.755Z,11.57
2022-08-01T12:53:02.202Z,12.20
2022-08-01T12:55:33.562Z,12.03
2022-08-01T12:58:15.656Z,11.40
2022-08-01T13:00:46.375Z,12.04
2022-08-01T13:03:16.091Z,11.84
2022-08-01T13:05:46.632Z,11.80
2022-08-01T13:08:14.989Z,10.95
2022-08-01T13:10:43.398Z,12.00
2022-08-01T13:13:22.312Z,11.95
2022-08-01T13:16:06.326Z,11.82
2022-08-01T13:18:35.391Z,12.66
2022-08-01T13:21:11.618Z,12.18
2022-08-01T13:24:03.424Z,12.80
2022-08-01T13:26:43.885Z,12.94
2022-08-01T13:29:15.003Z,13.33
2022-08-01T13:31:44.330Z,13.88
2022-08-01T13:34:13.017Z,14.16
2022-08-01T13:36:48.423Z,14.24
2022-08-01T13:39:35.291Z,14.34
2022-08-01T13:42:03.897Z,14.26
2022-08-01T13:44:34.120Z,13.98
2022-08-01T13:47:02.372Z,14.65
2022-08-01T13:49:43.032Z,13.65
2022-08-01T13:52:11.219Z,14.60
2022-08-01T13:54:39.618Z,14.56
2022-08-01T13:57:07.981Z,14.61
2022-08-01T13:59:37.593Z,14.25
2022-08-01T14:02:06.128Z,14.44
2022-08-01T14:04:34.746Z,14.51
2022-08-01T14:07:09.549Z,14.67
2022-08-01T14:10:04.758Z,14.61
2022-08-01T14:12:28.680Z,14.48
2022-08-01T14:14:58.448Z,14.67
2022-08-01T14:17:26.813Z,14.49
2022-08-01T14:19:57.925Z,14.81
2022-08-01T14:22:26.605Z,14.63
2022-08-01T14:24:59.505Z,14.61
2022-08-01T14:27:31.900Z,14.84
2022-08-01T14:30:03.806Z,14.59
2022-08-01T14:32:34.363Z,14.76
2022-08-01T14:35:03.217Z,14.69
2022-08-01T14:37:35.992Z,14.80
2022-08-01T14:40:10.528Z,14.94
2022-08-01T14:42:39.515Z,14.84
2022-08-01T14:45:11.020Z,14.82
2022-08-01T14:47:39.237Z,14.60
2022-08-01T14:50:09.312Z,14.44
2022-08-01T14:52:38.461Z,14.44
2022-08-01T14:55:08.933Z,14.57
2022-08-01T14:57:37.114Z,15.16
2022-08-01T15:00:08.035Z,15.07
2022-08-01T15:02:37.486Z,15.11
2022-08-01T15:05:06.585Z,15.36
2022-08-01T15:07:37.017Z,15.75
2022-08-01T15:10:09.070Z,16.06
2022-08-01T15:12:49.972Z,16.33
2022-08-01T15:15:18.735Z,16.70
2022-08-01T15:17:48.461Z,16.22
2022-08-01T15:20:16.653Z,16.62
2022-08-01T15:22:45.068Z,17.16
2022-08-01T15:25:13.537Z,16.62
2022-08-01T15:27:41.736Z,17.36
2022-08-01T15:30:10.436Z,17.10
2022-08-01T15:32:39.374Z,17.52
2022-08-01T15:35:11.310Z,17.23
2022-08-01T15:37:43.088Z,17.50
2022-08-01T15:40:12.655Z,17.24
2022-08-01T15:42:41.138Z,17.59
2022-08-01T15:45:20.738Z,17.43
2022-08-01T15:47:58.796Z,17.62
2022-08-01T15:50:28.627Z,17.59
2022-08-01T15:52:56.739Z,17.82
2022-08-01T15:55:25.401Z,17.68
2022-08-01T15:57:53.878Z,17.81
2022-08-01T16:00:22.214Z,17.90
2022-08-01T16:02:50.642Z,17.76
2022-08-01T16:05:20.572Z,17.96
2022-08-01T16:07:59.279Z,17.60
2022-08-01T16:10:30.779Z,17.78
2022-08-01T16:12:58.937Z,17.45
2022-08-01T16:15:36.586Z,17.25
2022-08-01T16:18:05.843Z,17.15
2022-08-01T16:20:34.269Z,17.29
2022-08-01T16:23:04.071Z,17.40
2022-08-01T16:25:32.324Z,17.63
2022-08-01T16:28:00.487Z,17.38
2022-08-01T16:30:29.170Z,17.82
2022-08-01T16:33:00.630Z,17.93
2022-08-01T16:35:36.284Z,17.94
2022-08-01T16:38:07.216Z,17.38
2022-08-01T16:40:47.434Z,17.94
2022-08-01T16:43:16.249Z,17.78
2022-08-01T16:45:44.839Z,17.78
2022-08-01T16:48:15.477Z,18.16
2022-08-01T16:50:44.100Z,17.94
2022-08-01T16:53:14.574Z,17.89
2022-08-01T16:55:50.446Z,18.25
2022-08-01T16:58:27.211Z,17.72
2022-08-01T17:00:57.225Z,17.98
2022-08-01T17:03:47.173Z,17.93
2022-08-01T17:06:14.790Z,18.15
2022-08-01T17:08:47.459Z,17.96
2022-08-01T17:11:16.498Z,18.14
2022-08-01T17:13:45.509Z,18.62
2022-08-01T17:16:14.239Z,18.58
2022-08-01T17:18:42.624Z,18.88
2022-08-01T17:21:10.888Z,18.95
2022-08-01T17:23:39.308Z,19.24
2022-08-01T17:26:08.926Z,19.19
2022-08-01T17:28:37.089Z,19.09
2022-08-01T17:31:09.355Z,19.63
2022-08-01T17:33:45.551Z,19.50
2022-08-01T17:36:18.005Z,19.75
2022-08-01T17:38:46.353Z,19.70
2022-08-01T17:41:16.248Z,19.61
2022-08-01T17:43:44.604Z,19.63
2022-08-01T17:46:12.933Z,19.91
2022-08-01T17:48:41.111Z,20.02
2022-08-01T17:51:09.591Z,20.26
2022-08-01T17:53:37.917Z,20.06
2022-08-01T17:56:27.303Z,20.00
2022-08-01T17:58:55.559Z,20.13
2022-08-01T18:01:26.937Z,20.03
2022-08-01T18:03:57.697Z,20.41
2022-08-01T18:06:26.188Z,20.40
2022-08-01T18:08:56.385Z,20.63
2022-08-01T18:11:27.126Z,20.29
2022-08-01T18:13:56.772Z,20.68
2022-08-01T18:16:26.259Z,20.81
2022-08-01T18:18:56.027Z,20.54
2022-08-01T18:21:24.424Z,20.56
2022-08-01T18:23:52.784Z,20.51
2022-08-01T18:26:21.618Z,20.68
2022-08-01T18:28:51.256Z,20.71
2022-08-01T18:31:20.806Z,20.61
2022-08-01T18:33:49.469Z,20.64
2022-08-01T18:36:32.869Z,20.80
2022-08-01T18:39:04.645Z,20.58
2022-08-01T18:41:33.914Z,20.84
2022-08-01T18:44:08.144Z,20.85
2022-08-01T18:46:38.043Z,20.77
2022-08-01T18:49:07.930Z,21.20
2022-08-01T18:51:40.204Z,21.36
2022-08-01T18:54:12.372Z,20.77
2022-08-01T18:56:40.510Z,20.95
2022-08-01T18:59:10.358Z,21.31
2022-08-01T19:01:39.802Z,21.48
2022-08-01T19:04:08.473Z,21.29
2022-08-01T19:06:37.011Z,21.68
2022-08-01T19:09:05.923Z,21.77
2022-08-01T19:11:35.113Z,21.86
2022-08-01T19:14:03.889Z,21.71
2022-08-01T19:16:34.091Z,21.54
2022-08-01T19:19:04.653Z,21.91
2022-08-01T19:21:33.139Z,22.30
2022-08-01T19:24:22.865Z,22.47
2022-08-01T19:26:53.819Z,22.27
2022-08-01T19:29:23.486Z,22.59
2022-08-01T19:32:06.812Z,22.45
2022-08-01T19:34:36.797Z,22.50
2022-08-01T19:37:05.414Z,23.00
2022-08-01T19:39:33.985Z,22.72
2022-08-01T19:42:04.274Z,23.06
2022-08-01T19:44:33.227Z,23.35
2022-08-01T19:47:02.170Z,23.15
2022-08-01T19:49:32.114Z,23.59
2022-08-01T19:52:02.491Z,23.52
2022-08-01T19:54:35.469Z,23.47
2022-08-01T19:57:06.068Z,23.96
2022-08-01T19:59:36.364Z,23.77
2022-08-01T20:02:05.918Z,24.47
2022-08-01T20:04:36.003Z,24.37
2022-08-01T20:07:04.770Z,24.45
2022-08-01T20:09:34.455Z,24.58
2022-08-01T20:12:02.839Z,24.47
2022-08-01T20:14:30.925Z,24.70
2022-08-01T20:16:59.414Z,24.71
2022-08-01T20:19:29.527Z,24.83
2022-08-01T20:22:03.024Z,24.22
2022-08-01T20:24:39.537Z,24.37
2022-08-01T20:27:10.387Z,24.80
2022-08-01T20:29:39.351Z,24.60
2022-08-01T20:32:07.901Z,24.93
2022-08-01T20:34:38.372Z,24.30
2022-08-01T20:37:13.025Z,24.53
2022-08-01T20:39:44.239Z,24.40
2022-08-01T20:42:14.406Z,25.21
2022-08-01T20:44:42.999Z,24.71
2022-08-01T20:47:11.619Z,24.97
2022-08-01T20:49:43.416Z,24.68
2022-08-01T20:52:13.153Z,25.05
2022-08-01T20:54:42.337Z,24.92
2022-08-01T20:57:13.676Z,24.81
2022-08-01T20:59:55.487Z,23.42
2022-08-01T21:02:35.952Z,24.18
2022-08-01T21:05:07.477Z,24.46
2022-08-01T21:07:40.637Z,24.17
2022-08-01T21:10:10.935Z,24.43
2022-08-01T21:12:45.054Z,24.18
2022-08-01T21:15:17.443Z,24.28
2022-08-01T21:17:48.170Z,24.27
2022-08-01T21:20:16.885Z,24.32
2022-08-01T21:22:54.283Z,23.59
2022-08-01T21:25:25.762Z,23.78
2022-08-01T21:27:54.350Z,24.11
2022-08-01T21:30:25.190Z,23.82
2022-08-01T21:32:53.905Z,24.12
2022-08-01T21:35:23.601Z,24.23
2022-08-01T21:37:53.691Z,23.86
2022-08-01T21:40:24.287Z,23.77
2022-08-01T21:42:53.667Z,23.98
2022-08-01T21:45:24.393Z,23.92
2022-08-01T21:47:53.317Z,24.25
2022-08-01T21:50:22.268Z,23.92
2022-08-01T21:53:05.178Z,24.35
2022-08-01T21:55:38.800Z,23.75
2022-08-01T21:58:28.918Z,23.64
2022-08-01T22:01:04.848Z,23.58
2022-08-01T22:03:38.196Z,23.32
2022-08-01T22:06:07.326Z,24.02
2022-08-01T22:08:37.998Z,24.24
2022-08-01T22:11:09.265Z,24.14
2022-08-01T22:13:37.933Z,24.70
2022-08-01T22:16:07.189Z,24.30
2022-08-01T22:18:37.141Z,24.36
2022-08-01T22:21:05.817Z,24.26
2022-08-01T22:23:36.356Z,24.33
2022-08-01T22:26:08.776Z,24.33
2022-08-01T22:28:39.239Z,24.67
2022-08-01T22:31:08.245Z,24.80
2022-08-01T22:33:37.530Z,24.92
2022-08-01T22:36:08.052Z,24.72
2022-08-01T22:38:36.630Z,25.03
2022-08-01T22:41:06.852Z,25.03
2022-08-01T22:43:41.279Z,24.79
2022-08-01T22:46:18.855Z,24.37
2022-08-01T22:48:51.680Z,24.61
2022-08-01T22:51:32.196Z,24.58
2022-08-01T22:54:05.466Z,25.09
2022-08-01T22:56:34.926Z,25.14
2022-08-01T22:59:10.209Z,25.26
2022-08-01T23:01:39.105Z,25.76
2022-08-01T23:04:08.093Z,25.78
2022-08-01T23:06:41.004Z,25.07
2022-08-01T23:09:10.622Z,25.77
2022-08-01T23:11:39.486Z,26.12
2022-08-01T23:14:09.768Z,25.93
2022-08-01T23:16:38.167Z,26.47
2022-08-01T23:19:06.488Z,26.77
2022-08-01T23:21:38.740Z,26.57
2022-08-01T23:24:10.594Z,27.06
2022-08-01T23:26:39.422Z,27.26
2022-08-01T23:29:10.011Z,26.84
2022-08-01T23:32:00.241Z,27.35
2022-08-01T23:34:26.540Z,27.53
2022-08-01T23:36:54.924Z,27.25
2022-08-01T23:39:23.146Z,27.54
2022-08-01T23:41:57.785Z,27.94
2022-08-01T23:44:28.451Z,27.28
2022-08-01T23:46:56.534Z,27.58
2022-08-01T23:49:24.934Z,27.86
2022-08-01T23:51:53.730Z,27.60
2022-08-01T23:54:21.951Z,27.87
2022-08-01T23:56:51.951Z,27.83
2022-08-01T23:59:21.316Z,27.84
